createdAt,value
2022-12-18T00:00:12.156Z,7.33
2022-12-18T00:02:43.124Z,7.33
2022-12-18T00:05:11.660Z,7.97
2022-12-18T00:07:40.150Z,7.60
2022-12-18T00:10:09.809Z,8.37
2022-12-18T00:12:38.236Z,8.53
2022-12-18T00:15:07.285Z,8.37
2022-12-18T00:17:37.355Z,8.43
2022-12-18T00:20:06.319Z,8.50
2022-12-18T00:22:34.778Z,8.53
2022-12-18T00:25:03.257Z,7.53
2022-12-18T00:27:31.581Z,7.90
2022-12-18T00:29:59.974Z,8.60
2022-12-18T00:32:28.451Z,7.33
2022-12-18T00:34:58.871Z,7.83
2022-12-18T00:37:27.238Z,7.80
2022-12-18T00:39:55.618Z,7.63
2022-12-18T00:42:57.160Z,9.10
2022-12-18T00:45:31.115Z,8.00
2022-12-18T00:48:00.106Z,7.37
2022-12-18T00:50:29.977Z,8.63
2022-12-18T00:52:58.365Z,8.30
2022-12-18T00:55:26.718Z,8.40
2022-12-18T00:57:55.169Z,9.20
2022-12-18T01:00:24.306Z,8.70
2022-12-18T01:02:52.966Z,9.30
2022-12-18T01:05:21.593Z,8.87
2022-12-18T01:07:51.589Z,9.37
2022-12-18T01:10:20.806Z,9.90
2022-12-18T01:12:49.352Z,9.33
2022-12-18T01:15:21.014Z,9.07
2022-12-18T01:17:49.462Z,8.83
2022-12-18T01:20:17.869Z,9.30
2022-12-18T01:22:47.767Z,9.10
2022-12-18T01:25:17.816Z,10.03
2022-12-18T01:27:46.182Z,9.07
2022-12-18T01:30:14.926Z,9.80
2022-12-18T01:32:43.533Z,9.60
2022-12-18T01:35:11.971Z,9.00
2022-12-18T01:37:40.384Z,9.10
2022-12-18T01:40:10.263Z,8.80
2022-12-18T01:42:40.211Z,9.53
2022-12-18T01:45:25.950Z,8.90
2022-12-18T01:47:57.158Z,9.57
2022-12-18T01:50:29.270Z,8.40
2022-12-18T01:53:00.167Z,8.90
2022-12-18T01:55:32.759Z,8.23
2022-12-18T01:58:03.289Z,9.00
2022-12-18T02:00:32.512Z,9.30
2022-12-18T02:03:00.998Z,9.00
2022-12-18T02:05:42.301Z,9.73
2022-12-18T02:08:17.156Z,9.13
2022-12-18T02:10:55.887Z,9.73
2022-12-18T02:13:38.686Z,9.60
2022-12-18T02:16:16.034Z,8.97
2022-12-18T02:18:49.968Z,9.30
2022-12-18T02:21:29.886Z,8.87
2022-12-18T02:24:13.388Z,9.23
2022-12-18T02:26:47.466Z,10.37
2022-12-18T02:29:19.951Z,8.83
2022-12-18T02:31:53.823Z,8.73
2022-12-18T02:34:25.441Z,8.50
2022-12-18T02:36:56.407Z,8.00
2022-12-18T02:39:27.707Z,9.27
2022-12-18T02:42:08.898Z,8.90
2022-12-18T02:44:43.706Z,9.53
2022-12-18T02:47:13.987Z,9.60
2022-12-18T02:49:50.938Z,10.10
2022-12-18T02:52:31.275Z,9.10
2022-12-18T02:55:15.243Z,8.93
2022-12-18T02:57:52.113Z,9.00
2022-12-18T03:00:26.543Z,9.67
2022-12-18T03:02:59.903Z,8.77
2022-12-18T03:05:35.362Z,9.03
2022-12-18T03:08:08.434Z,9.53
2022-12-18T03:10:45.239Z,9.90
2022-12-18T03:13:21.326Z,9.43
2022-12-18T03:15:52.907Z,10.10
2022-12-18T03:18:25.766Z,8.90
2022-12-18T03:20:57.834Z,9.13
2022-12-18T03:23:31.743Z,9.50
2022-12-18T03:26:07.285Z,9.10
2022-12-18T03:28:47.351Z,10.40
2022-12-18T03:31:18.128Z,8.73
2022-12-18T03:33:49.715Z,8.10
2022-12-18T03:36:19.784Z,9.43
2022-12-18T03:38:49.605Z,10.07
2022-12-18T03:41:24.226Z,9.40
2022-12-18T03:44:28.895Z,8.90
2022-12-18T03:47:07.370Z,8.83
2022-12-18T03:49:40.299Z,9.23
2022-12-18T03:52:13.691Z,9.50
2022-12-18T03:54:45.022Z,9.47
2022-12-18T03:57:20.039Z,9.00
2022-12-18T03:59:56.229Z,9.07
2022-12-18T04:02:29.967Z,8.53
2022-12-18T04:05:03.935Z,9.00
2022-12-18T04:07:32.999Z,9.33
2022-12-18T04:10:04.093Z,9.07
2022-12-18T04:12:34.018Z,9.83
2022-12-18T04:15:04.437Z,9.07
2022-12-18T04:17:32.938Z,9.00
2022-12-18T04:20:01.350Z,10.00
2022-12-18T04:22:30.183Z,9.43
2022-12-18T04:25:01.523Z,8.97
2022-12-18T04:27:37.415Z,9.30
2022-12-18T04:30:10.006Z,9.03
2022-12-18T04:32:38.754Z,9.00
2022-12-18T04:35:11.558Z,8.60
2022-12-18T04:37:43.370Z,8.80
2022-12-18T04:40:13.771Z,9.97
2022-12-18T04:42:45.952Z,9.13
2022-12-18T04:45:15.868Z,9.40
2022-12-18T04:47:44.259Z,9.67
2022-12-18T04:50:12.646Z,9.50
2022-12-18T04:52:41.030Z,10.50
2022-12-18T04:55:09.971Z,10.07
2022-12-18T04:57:38.352Z,8.67
2022-12-18T05:00:08.091Z,9.70
2022-12-18T05:02:37.936Z,9.37
2022-12-18T05:05:07.502Z,9.90
2022-12-18T05:07:36.206Z,9.00
2022-12-18T05:10:05.202Z,9.90
2022-12-18T05:12:34.335Z,9.70
2022-12-18T05:15:02.688Z,9.83
2022-12-18T05:17:31.060Z,11.17
2022-12-18T05:20:00.820Z,9.90
2022-12-18T05:22:29.236Z,10.60
2022-12-18T05:24:57.618Z,10.10
2022-12-18T05:27:26.070Z,9.77
2022-12-18T05:29:54.567Z,9.50
2022-12-18T05:32:22.974Z,10.30
2022-12-18T05:34:51.340Z,9.40
2022-12-18T05:37:21.872Z,9.77
2022-12-18T05:39:50.412Z,9.30
2022-12-18T05:42:18.761Z,9.53
2022-12-18T05:44:47.294Z,9.20
2022-12-18T05:47:15.675Z,8.67
2022-12-18T05:49:44.050Z,8.10
2022-12-18T05:52:12.456Z,9.00
2022-12-18T05:54:42.100Z,9.00
2022-12-18T05:57:10.742Z,9.90
2022-12-18T05:59:39.098Z,9.60
2022-12-18T06:02:07.837Z,8.70
2022-12-18T06:04:36.310Z,9.10
2022-12-18T06:07:04.721Z,8.73
2022-12-18T06:09:33.376Z,8.40
2022-12-18T06:12:03.153Z,7.97
2022-12-18T06:14:31.522Z,9.13
2022-12-18T06:16:59.952Z,9.30
2022-12-18T06:19:28.335Z,9.00
2022-12-18T06:21:58.788Z,8.83
2022-12-18T06:24:27.157Z,8.73
2022-12-18T06:26:56.118Z,8.60
2022-12-18T06:29:26.077Z,8.50
2022-12-18T06:31:54.439Z,8.70
2022-12-18T06:34:22.821Z,8.30
2022-12-18T06:36:51.266Z,8.40
2022-12-18T06:39:19.677Z,8.20
2022-12-18T06:41:48.079Z,9.47
2022-12-18T06:44:16.678Z,8.90
2022-12-18T06:46:46.414Z,9.40
2022-12-18T06:49:14.989Z,9.50
2022-12-18T06:51:43.541Z,8.87
2022-12-18T06:54:11.962Z,10.50
2022-12-18T06:56:40.428Z,8.53
2022-12-18T06:59:08.834Z,9.37
2022-12-18T07:01:37.440Z,9.87
2022-12-18T07:04:07.584Z,8.47
2022-12-18T07:06:35.895Z,8.97
2022-12-18T07:09:04.317Z,9.33
2022-12-18T07:11:35.182Z,8.60
2022-12-18T07:14:03.597Z,8.80
2022-12-18T07:16:31.950Z,8.07
2022-12-18T07:19:00.418Z,8.30
2022-12-18T07:21:30.258Z,8.37
2022-12-18T07:23:58.769Z,8.57
2022-12-18T07:26:27.334Z,8.37
2022-12-18T07:28:58.563Z,7.50
2022-12-18T07:31:28.595Z,7.00
2022-12-18T07:33:57.009Z,6.67
2022-12-18T07:36:25.449Z,6.67
2022-12-18T07:38:55.446Z,6.27
2022-12-18T07:41:24.218Z,6.67
2022-12-18T07:43:52.573Z,7.37
2022-12-18T07:46:21.170Z,7.93
2022-12-18T07:48:50.311Z,9.20
2022-12-18T07:51:20.247Z,8.00
2022-12-18T07:53:49.601Z,8.77
2022-12-18T07:56:31.120Z,8.53
2022-12-18T07:59:00.790Z,8.33
2022-12-18T08:01:32.456Z,8.87
2022-12-18T08:04:00.990Z,7.60
2022-12-18T08:06:29.586Z,7.73
2022-12-18T08:08:58.897Z,8.10
2022-12-18T08:11:30.191Z,8.43
2022-12-18T08:13:59.735Z,8.50
2022-12-18T08:16:29.361Z,9.53
2022-12-18T08:18:58.020Z,11.47
2022-12-18T08:21:28.429Z,10.97
2022-12-18T08:23:58.539Z,10.80
2022-12-18T08:26:31.346Z,10.90
2022-12-18T08:29:01.701Z,11.20
2022-12-18T08:31:31.899Z,10.87
2022-12-18T08:34:00.599Z,9.93
2022-12-18T08:36:29.182Z,9.87
2022-12-18T08:38:58.600Z,10.23
2022-12-18T08:41:28.901Z,9.70
2022-12-18T08:44:14.514Z,9.50
2022-12-18T08:46:44.531Z,9.40
2022-12-18T08:49:14.163Z,9.90
2022-12-18T08:51:42.791Z,10.20
2022-12-18T08:54:14.037Z,10.70
2022-12-18T08:56:43.952Z,10.50
2022-12-18T08:59:19.035Z,10.80
2022-12-18T09:01:49.159Z,10.67
2022-12-18T09:04:17.707Z,9.77
2022-12-18T09:06:46.038Z,10.70
2022-12-18T09:09:16.955Z,10.33
2022-12-18T09:11:46.657Z,11.33
2022-12-18T09:14:15.221Z,10.50
2022-12-18T09:16:43.845Z,10.13
2022-12-18T09:19:12.737Z,10.33
2022-12-18T09:21:47.575Z,9.37
2022-12-18T09:24:19.231Z,9.83
2022-12-18T09:26:57.957Z,9.33
2022-12-18T09:29:26.751Z,9.90
2022-12-18T09:31:55.207Z,9.20
2022-12-18T09:34:24.099Z,9.00
2022-12-18T09:36:52.641Z,8.67
2022-12-18T09:39:22.236Z,9.30
2022-12-18T09:41:55.552Z,10.07
2022-12-18T09:44:29.422Z,10.20
2022-12-18T09:47:08.102Z,9.67
2022-12-18T09:49:42.912Z,9.50
2022-12-18T09:52:16.786Z,9.07
2022-12-18T09:54:49.793Z,10.10
2022-12-18T09:57:21.704Z,9.63
2022-12-18T09:59:57.067Z,9.27
2022-12-18T10:02:27.819Z,8.77
2022-12-18T10:05:06.433Z,10.23
2022-12-18T10:07:52.104Z,8.90
2022-12-18T10:10:37.918Z,10.23
2022-12-18T10:13:17.674Z,8.93
2022-12-18T10:16:00.656Z,10.30
2022-12-18T10:18:52.548Z,11.83
2022-12-18T10:21:26.027Z,10.03
2022-12-18T10:24:01.804Z,10.17
2022-12-18T10:26:30.210Z,9.70
2022-12-18T10:29:05.364Z,9.50
2022-12-18T10:31:35.594Z,9.60
2022-12-18T10:34:04.180Z,10.57
2022-12-18T10:36:32.583Z,9.63
2022-12-18T10:39:17.176Z,9.70
2022-12-18T10:41:45.894Z,10.13
2022-12-18T10:44:19.289Z,11.37
2022-12-18T10:46:51.587Z,10.23
2022-12-18T10:49:28.820Z,10.20
2022-12-18T10:52:09.645Z,9.67
2022-12-18T10:54:39.785Z,10.50
2022-12-18T10:57:19.014Z,10.23
2022-12-18T10:59:55.744Z,10.07
2022-12-18T11:02:37.271Z,10.20
2022-12-18T11:05:26.999Z,10.77
2022-12-18T11:07:57.770Z,9.97
2022-12-18T11:10:32.664Z,9.23
2022-12-18T11:13:13.432Z,10.50
2022-12-18T11:15:43.632Z,9.77
2022-12-18T11:18:22.121Z,9.57
2022-12-18T11:20:58.713Z,10.70
2022-12-18T11:23:28.213Z,10.37
2022-12-18T11:25:59.373Z,10.90
2022-12-18T11:28:37.843Z,12.60
2022-12-18T11:31:25.417Z,10.20
2022-12-18T11:37:01.367Z,10.73
2022-12-18T11:39:38.098Z,10.40
2022-12-18T11:42:13.581Z,10.93
2022-12-18T11:44:48.929Z,11.20
2022-12-18T11:47:27.646Z,12.10
2022-12-18T11:49:59.054Z,11.47
2022-12-18T11:52:30.270Z,10.43
2022-12-18T11:55:03.505Z,11.60
2022-12-18T11:57:38.728Z,10.70
2022-12-18T12:00:15.949Z,11.30
2022-12-18T12:03:22.329Z,10.50
2022-12-18T12:06:04.907Z,10.53
2022-12-18T12:08:44.571Z,10.30
2022-12-18T12:11:18.506Z,11.40
2022-12-18T12:13:55.510Z,11.37
2022-12-18T12:16:33.749Z,10.27
2022-12-18T12:19:22.151Z,10.50
2022-12-18T12:22:00.453Z,10.87
2022-12-18T12:24:42.372Z,11.93
2022-12-18T12:27:22.263Z,10.33
2022-12-18T12:30:02.957Z,10.50
2022-12-18T12:32:48.131Z,11.13
2022-12-18T12:35:29.700Z,10.90
2022-12-18T12:38:10.432Z,11.20
2022-12-18T12:40:58.551Z,10.40
2022-12-18T12:43:35.448Z,11.00
2022-12-18T12:46:08.337Z,10.50
2022-12-18T12:48:44.457Z,11.20
2022-12-18T12:51:18.450Z,9.33
2022-12-18T12:53:49.245Z,10.90
2022-12-18T12:56:21.439Z,11.13
2022-12-18T12:59:00.613Z,10.33
2022-12-18T13:01:37.251Z,9.23
2022-12-18T13:04:17.473Z,10.30
2022-12-18T13:06:51.330Z,10.53
2022-12-18T13:09:21.299Z,10.90
2022-12-18T13:12:08.285Z,9.90
2022-12-18T13:14:39.206Z,11.00
2022-12-18T13:17:18.985Z,11.10
2022-12-18T13:19:51.073Z,9.77
2022-12-18T13:22:24.841Z,10.30
2022-12-18T13:24:54.904Z,9.60
2022-12-18T13:27:59.042Z,10.93
2022-12-18T13:30:47.774Z,10.50
2022-12-18T13:34:24.443Z,9.97
2022-12-18T13:36:39.296Z,11.47
2022-12-18T13:39:36.065Z,11.47
2022-12-18T13:42:59.034Z,11.70
2022-12-18T13:46:01.926Z,10.20
2022-12-18T13:48:33.944Z,12.37
2022-12-18T13:51:06.583Z,12.10
2022-12-18T13:53:41.335Z,12.40
2022-12-18T13:56:10.662Z,12.27
2022-12-18T13:58:40.867Z,12.53
2022-12-18T14:01:24.308Z,13.13
2022-12-18T14:04:11.656Z,12.63
2022-12-18T14:06:40.505Z,12.77
2022-12-18T14:09:20.331Z,12.63
2022-12-18T14:11:51.581Z,12.90
2022-12-18T14:14:22.574Z,12.83
2022-12-18T14:16:53.102Z,13.23
2022-12-18T14:19:23.012Z,12.60
2022-12-18T14:21:52.680Z,13.87
2022-12-18T14:24:22.470Z,13.83
2022-12-18T14:26:52.288Z,13.37
2022-12-18T14:29:25.306Z,14.23
2022-12-18T14:32:18.683Z,12.83
2022-12-18T14:34:49.154Z,13.27
2022-12-18T14:37:19.638Z,13.70
2022-12-18T14:40:10.163Z,12.63
2022-12-18T14:42:39.797Z,14.37
2022-12-18T14:45:43.257Z,12.77
2022-12-18T14:48:19.695Z,12.70
2022-12-18T14:51:00.583Z,13.90
2022-12-18T14:53:36.572Z,14.80
2022-12-18T14:56:06.201Z,15.10
2022-12-18T14:58:34.666Z,15.13
2022-12-18T15:01:04.567Z,15.53
2022-12-18T15:03:33.674Z,14.87
2022-12-18T15:06:18.138Z,15.50
2022-12-18T15:08:46.669Z,15.10
2022-12-18T15:11:36.758Z,16.83
2022-12-18T15:14:32.623Z,19.30
2022-12-18T15:17:03.951Z,21.60
2022-12-18T15:19:41.446Z,18.40
2022-12-18T15:22:22.883Z,18.13
2022-12-18T15:24:52.183Z,33.57
2022-12-18T15:27:30.964Z,31.13
2022-12-18T15:30:20.112Z,31.50
2022-12-18T15:32:50.973Z,26.30
2022-12-18T15:35:22.775Z,20.60
2022-12-18T15:37:51.824Z,29.57
2022-12-18T15:40:22.395Z,31.40
2022-12-18T15:43:10.541Z,39.43
2022-12-18T15:45:38.863Z,31.10
2022-12-18T15:48:20.123Z,26.27
2022-12-18T15:50:48.633Z,27.40
2022-12-18T15:53:16.962Z,44.20
2022-12-18T15:56:02.784Z,23.47
2022-12-18T15:58:31.436Z,20.67
2022-12-18T16:01:01.690Z,19.10
2022-12-18T16:03:31.983Z,18.40
2022-12-18T16:06:02.993Z,16.77
2022-12-18T16:08:32.821Z,15.07
2022-12-18T16:11:02.093Z,17.07
2022-12-18T16:13:30.594Z,15.50
2022-12-18T16:15:59.507Z,17.10
2022-12-18T16:18:32.027Z,17.53
2022-12-18T16:21:00.796Z,17.63
2022-12-18T16:23:29.497Z,16.63
2022-12-18T16:25:57.879Z,16.97
2022-12-18T16:28:26.318Z,18.87
2022-12-18T16:30:54.848Z,20.93
2022-12-18T16:33:23.273Z,17.30
2022-12-18T16:35:55.523Z,19.70
2022-12-18T16:38:23.895Z,18.90
2022-12-18T16:41:18.194Z,16.63
2022-12-18T16:43:51.540Z,18.30
2022-12-18T16:46:22.989Z,19.27
2022-12-18T16:48:51.434Z,18.50
2022-12-18T16:51:21.370Z,18.40
2022-12-18T16:53:49.810Z,17.10
2022-12-18T16:56:18.309Z,16.90
2022-12-18T16:58:51.267Z,18.53
2022-12-18T17:01:19.637Z,17.87
2022-12-18T17:03:54.382Z,18.00
2022-12-18T17:06:25.208Z,20.20
2022-12-18T17:08:58.204Z,18.33
2022-12-18T17:11:31.907Z,18.83
2022-12-18T17:14:00.820Z,20.17
2022-12-18T17:16:30.056Z,22.07
2022-12-18T17:18:59.704Z,20.70
2022-12-18T17:21:29.816Z,21.37
2022-12-18T17:24:02.334Z,20.83
2022-12-18T17:26:31.067Z,19.67
2022-12-18T17:29:00.047Z,21.57
2022-12-18T17:31:30.233Z,22.00
2022-12-18T17:33:59.218Z,21.47
2022-12-18T17:36:31.099Z,23.03
2022-12-18T17:39:01.215Z,22.03
2022-12-18T17:41:31.013Z,22.03
2022-12-18T17:44:01.889Z,20.80
2022-12-18T17:46:32.314Z,23.73
2022-12-18T17:49:02.093Z,23.33
2022-12-18T17:51:32.498Z,20.77
2022-12-18T17:54:01.061Z,22.33
2022-12-18T17:56:29.614Z,36.97
2022-12-18T17:58:58.049Z,26.17
2022-12-18T18:01:28.672Z,21.80
2022-12-18T18:03:57.638Z,22.13
2022-12-18T18:06:26.444Z,24.20
2022-12-18T18:08:56.671Z,23.27
2022-12-18T18:11:43.269Z,23.23
2022-12-18T18:14:16.668Z,25.17
2022-12-18T18:16:46.788Z,23.17
2022-12-18T18:19:17.144Z,28.00
2022-12-18T18:21:48.176Z,28.50
2022-12-18T18:24:20.478Z,25.77
2022-12-18T18:26:48.975Z,25.17
2022-12-18T18:29:19.355Z,23.13
2022-12-18T18:31:48.175Z,22.33
2022-12-18T18:34:18.217Z,23.50
2022-12-18T18:36:47.667Z,22.33
2022-12-18T18:39:16.353Z,23.67
2022-12-18T18:41:48.052Z,23.63
2022-12-18T18:44:17.369Z,21.90
2022-12-18T18:46:46.199Z,23.80
2022-12-18T18:49:15.375Z,24.23
2022-12-18T18:51:43.797Z,24.63
2022-12-18T18:54:12.871Z,25.80
2022-12-18T18:57:11.715Z,26.67
2022-12-18T18:59:31.918Z,26.03
2022-12-18T19:02:04.652Z,25.50
2022-12-18T19:04:34.490Z,25.47
2022-12-18T19:07:03.345Z,25.60
2022-12-18T19:09:32.062Z,29.77
2022-12-18T19:12:17.840Z,25.27
2022-12-18T19:14:48.011Z,24.10
2022-12-18T19:17:16.558Z,24.10
2022-12-18T19:19:45.334Z,24.20
2022-12-18T19:22:14.200Z,24.27
2022-12-18T19:24:42.591Z,25.17
2022-12-18T19:27:11.051Z,25.60
2022-12-18T19:29:39.543Z,24.20
2022-12-18T19:32:12.342Z,23.60
2022-12-18T19:34:42.081Z,22.87
2022-12-18T19:37:12.737Z,24.33
2022-12-18T19:39:41.256Z,23.77
2022-12-18T19:42:09.651Z,27.27
2022-12-18T19:44:39.064Z,24.87
2022-12-18T19:47:08.806Z,27.83
2022-12-18T19:49:38.650Z,25.50
2022-12-18T19:52:07.123Z,25.87
2022-12-18T19:54:35.446Z,28.33
2022-12-18T19:57:07.179Z,27.07
2022-12-18T19:59:36.974Z,26.23
2022-12-18T20:02:14.301Z,28.30
2022-12-18T20:04:43.470Z,28.77
2022-12-18T20:07:12.131Z,36.77
2022-12-18T20:09:40.814Z,54.30
2022-12-18T20:12:09.431Z,52.80
2022-12-18T20:14:37.799Z,32.40
2022-12-18T20:17:06.644Z,34.97
2022-12-18T20:19:36.986Z,31.10
2022-12-18T20:22:05.527Z,28.43
2022-12-18T20:24:33.916Z,28.30
2022-12-18T20:27:02.442Z,27.40
2022-12-18T20:29:30.820Z,28.57
2022-12-18T20:31:59.648Z,26.90
2022-12-18T20:34:28.118Z,27.60
2022-12-18T20:36:58.439Z,27.63
2022-12-18T20:39:27.704Z,27.10
2022-12-18T20:41:56.806Z,26.43
2022-12-18T20:44:25.388Z,24.27
2022-12-18T20:46:55.176Z,25.47
2022-12-18T20:49:24.534Z,25.87
2022-12-18T20:51:54.055Z,25.47
2022-12-18T20:54:25.737Z,25.70
2022-12-18T20:56:54.311Z,27.60
2022-12-18T20:59:25.291Z,28.53
2022-12-18T21:01:54.626Z,28.07
2022-12-18T21:04:23.564Z,27.13
2022-12-18T21:07:00.744Z,28.67
2022-12-18T21:09:37.538Z,29.30
2022-12-18T21:12:33.498Z,29.63
2022-12-18T21:15:12.164Z,26.90
2022-12-18T21:17:44.571Z,28.60
2022-12-18T21:20:18.242Z,28.03
2022-12-18T21:22:49.290Z,27.50
2022-12-18T21:25:19.566Z,27.97
2022-12-18T21:27:47.982Z,26.83
2022-12-18T21:30:16.668Z,25.83
2022-12-18T21:32:45.168Z,25.97
2022-12-18T21:35:13.580Z,26.50
2022-12-18T21:37:42.090Z,25.57
2022-12-18T21:40:11.565Z,25.73
2022-12-18T21:42:58.695Z,27.27
2022-12-18T21:45:27.215Z,26.57
2022-12-18T21:47:55.637Z,27.33
2022-12-18T21:50:24.090Z,27.60
2022-12-18T21:52:52.551Z,27.03
2022-12-18T21:55:21.249Z,27.97
2022-12-18T21:57:51.010Z,27.60
2022-12-18T22:00:19.870Z,28.00
2022-12-18T22:03:16.968Z,27.17
2022-12-18T22:05:37.780Z,26.90
2022-12-18T22:08:06.950Z,28.20
2022-12-18T22:10:36.140Z,27.50
2022-12-18T22:13:06.604Z,28.37
2022-12-18T22:15:35.334Z,27.83
2022-12-18T22:18:04.008Z,28.27
2022-12-18T22:20:32.648Z,28.23
2022-12-18T22:23:05.743Z,28.33
2022-12-18T22:25:35.775Z,28.07
2022-12-18T22:28:27.035Z,27.93
2022-12-18T22:30:59.484Z,28.57
2022-12-18T22:33:29.033Z,27.27
2022-12-18T22:35:57.580Z,26.40
2022-12-18T22:38:25.970Z,26.77
2022-12-18T22:40:55.461Z,27.20
2022-12-18T22:43:25.823Z,26.47
2022-12-18T22:45:54.250Z,25.47
2022-12-18T22:48:22.877Z,26.97
2022-12-18T22:50:51.443Z,25.10
2022-12-18T22:53:24.878Z,25.30
2022-12-18T22:55:53.315Z,25.50
2022-12-18T22:58:21.735Z,25.73
2022-12-18T23:00:51.387Z,26.87
2022-12-18T23:03:19.861Z,24.93
2022-12-18T23:05:48.497Z,26.03
2022-12-18T23:08:16.958Z,26.40
2022-12-18T23:10:45.407Z,27.47
2022-12-18T23:13:13.815Z,25.50
2022-12-18T23:15:45.409Z,25.40
2022-12-18T23:18:15.390Z,27.07
2022-12-18T23:20:43.822Z,26.63
2022-12-18T23:23:12.787Z,25.17
2022-12-18T23:25:42.992Z,29.40
2022-12-18T23:28:11.529Z,31.77
2022-12-18T23:30:40.112Z,35.57
2022-12-18T23:33:08.570Z,41.97
2022-12-18T23:35:38.391Z,43.23
2022-12-18T23:38:07.077Z,42.50
2022-12-18T23:40:35.544Z,43.27
2022-12-18T23:43:03.963Z,37.53
2022-12-18T23:45:32.491Z,40.60
2022-12-18T23:48:00.870Z,43.10
2022-12-18T23:50:30.240Z,55.90
2022-12-18T23:53:05.295Z,46.40
2022-12-18T23:55:39.613Z,44.37
2022-12-18T23:58:08.791Z,44.43
